createdAt,value
2019-02-03T00:00:42.730Z,1007.43
2019-02-03T00:01:42.840Z,1007.43
2019-02-03T00:02:42.546Z,1007.43
2019-02-03T00:03:42.462Z,1007.50
2019-02-03T00:04:42.602Z,1007.49
2019-02-03T00:05:42.286Z,1007.48
2019-02-03T00:06:42.196Z,1007.50
2019-02-03T00:07:42.371Z,1007.49
2019-02-03T00:08:42.023Z,1007.47
2019-02-03T00:09:41.964Z,1007.51
2019-02-03T00:10:41.875Z,1007.53
2019-02-03T00:11:41.759Z,1007.56
2019-02-03T00:12:41.668Z,1007.57
2019-02-03T00:13:41.592Z,1007.59
2019-02-03T00:14:41.521Z,1007.64
2019-02-03T00:15:41.412Z,1007.63
2019-02-03T00:16:41.321Z,1007.62
2019-02-03T00:17:41.415Z,1007.66
2019-02-03T00:18:41.146Z,1007.67
2019-02-03T00:19:41.079Z,1007.71
2019-02-03T00:20:47.986Z,1007.72
2019-02-03T00:21:40.881Z,1007.80
2019-02-03T00:22:40.795Z,1007.74
2019-02-03T00:23:40.727Z,1007.82
2019-02-03T00:24:40.643Z,1007.75
2019-02-03T00:25:55.494Z,1007.74
2019-02-03T00:26:40.442Z,1007.71
2019-02-03T00:27:40.457Z,1007.72
2019-02-03T00:28:40.272Z,1007.73
2019-02-03T00:29:40.338Z,1007.71
2019-02-03T00:30:40.086Z,1007.75
2019-02-03T00:31:47.040Z,1007.75
2019-02-03T00:32:39.913Z,1007.70
2019-02-03T00:33:39.887Z,1007.75
2019-02-03T00:34:39.918Z,1007.72
2019-02-03T00:35:39.697Z,1007.72
2019-02-03T00:36:39.566Z,1007.76
2019-02-03T00:37:39.502Z,1007.77
2019-02-03T00:38:39.388Z,1007.77
2019-02-03T00:39:39.393Z,1007.85
2019-02-03T00:40:39.323Z,1007.87
2019-02-03T00:41:39.179Z,1007.90
2019-02-03T00:42:39.036Z,1007.92
2019-02-03T00:43:40.978Z,1007.91
2019-02-03T00:44:38.884Z,1007.89
2019-02-03T00:45:38.837Z,1007.94
2019-02-03T00:46:38.686Z,1007.94
2019-02-03T00:47:38.654Z,1008.01
2019-02-03T00:48:38.509Z,1008.02
2019-02-03T00:49:38.449Z,1008.03
2019-02-03T00:50:38.365Z,1008.08
2019-02-03T00:51:38.245Z,1008.08
2019-02-03T00:52:38.158Z,1008.12
2019-02-03T00:53:38.180Z,1008.19
2019-02-03T00:54:38.016Z,1008.25
2019-02-03T00:55:37.892Z,1008.24
2019-02-03T00:56:37.892Z,1008.28
2019-02-03T00:57:37.730Z,1008.29
2019-02-03T00:58:37.634Z,1008.33
2019-02-03T00:59:38.675Z,1008.33
2019-02-03T01:00:37.460Z,1008.39
2019-02-03T01:01:37.373Z,1008.40
2019-02-03T01:02:37.318Z,1008.44
2019-02-03T01:03:37.193Z,1008.45
2019-02-03T01:04:37.142Z,1008.48
2019-02-03T01:05:37.032Z,1008.49
2019-02-03T01:06:36.938Z,1008.50
2019-02-03T01:07:36.944Z,1008.52
2019-02-03T01:08:36.761Z,1008.52
2019-02-03T01:09:36.695Z,1008.55
2019-02-03T01:10:36.656Z,1008.54
2019-02-03T01:11:36.489Z,1008.57
2019-02-03T01:12:36.402Z,1008.53
2019-02-03T01:13:36.373Z,1008.53
2019-02-03T01:14:36.252Z,1008.54
2019-02-03T01:15:36.185Z,1008.57
2019-02-03T01:16:36.050Z,1008.57
2019-02-03T01:17:35.999Z,1008.58
2019-02-03T01:18:35.878Z,1008.58
2019-02-03T01:19:35.845Z,1008.64
2019-02-03T01:20:35.710Z,1008.70
2019-02-03T01:21:35.715Z,1008.69
2019-02-03T01:22:35.532Z,1008.63
2019-02-03T01:23:35.442Z,1008.70
2019-02-03T01:24:35.402Z,1008.71
2019-02-03T01:25:35.261Z,1008.78
2019-02-03T01:26:35.236Z,1008.78
2019-02-03T01:27:35.080Z,1008.75
2019-02-03T01:28:35.001Z,1008.74
2019-02-03T01:29:34.950Z,1008.73
2019-02-03T01:30:34.850Z,1008.83
2019-02-03T01:31:34.767Z,1008.84
2019-02-03T01:32:34.639Z,1008.82
2019-02-03T01:33:34.570Z,1008.85
2019-02-03T01:34:34.466Z,1008.92
2019-02-03T01:35:34.402Z,1008.88
2019-02-03T01:36:34.382Z,1008.91
2019-02-03T01:37:39.721Z,1008.91
2019-02-03T01:38:34.117Z,1008.96
2019-02-03T01:39:34.099Z,1009.00
2019-02-03T01:40:33.961Z,1008.99
2019-02-03T01:41:33.908Z,1008.99
2019-02-03T01:42:33.754Z,1009.05
2019-02-03T01:43:33.714Z,1009.08
2019-02-03T01:44:33.580Z,1009.08
2019-02-03T01:45:33.521Z,1009.09
2019-02-03T01:46:33.429Z,1009.13
2019-02-03T01:47:33.317Z,1009.12
2019-02-03T01:48:33.224Z,1009.09
2019-02-03T01:49:33.247Z,1009.14
2019-02-03T01:50:33.073Z,1009.16
2019-02-03T01:51:34.997Z,1009.13
2019-02-03T01:52:32.881Z,1009.12
2019-02-03T01:53:32.862Z,1009.13
2019-02-03T01:54:32.696Z,1009.16
2019-02-03T01:55:32.710Z,1009.15
2019-02-03T01:56:32.524Z,1009.12
2019-02-03T01:57:32.487Z,1009.15
2019-02-03T01:58:32.348Z,1009.17
2019-02-03T01:59:32.296Z,1009.18
2019-02-03T02:00:32.191Z,1009.24
2019-02-03T02:01:32.099Z,1009.23
2019-02-03T02:02:31.994Z,1009.23
2019-02-03T02:03:32.014Z,1009.26
2019-02-03T02:04:31.813Z,1009.30
2019-02-03T02:05:31.831Z,1009.33
2019-02-03T02:06:31.637Z,1009.34
2019-02-03T02:07:31.589Z,1009.40
2019-02-03T02:08:31.470Z,1009.37
2019-02-03T02:09:31.398Z,1009.37
2019-02-03T02:10:31.311Z,1009.37
2019-02-03T02:11:31.412Z,1009.42
2019-02-03T02:12:31.117Z,1009.41
2019-02-03T02:13:31.219Z,1009.48
2019-02-03T02:14:30.938Z,1009.44
2019-02-03T02:15:30.869Z,1009.47
2019-02-03T02:16:30.762Z,1009.48
2019-02-03T02:17:30.669Z,1009.48
2019-02-03T02:18:30.580Z,1009.47
2019-02-03T02:19:30.642Z,1009.49
2019-02-03T02:20:30.428Z,1009.47
2019-02-03T02:21:30.316Z,1009.51
2019-02-03T02:22:30.253Z,1009.48
2019-02-03T02:23:30.137Z,1009.49
2019-02-03T02:24:30.048Z,1009.50
2019-02-03T02:25:30.108Z,1009.52
2019-02-03T02:26:29.874Z,1009.56
2019-02-03T02:27:29.880Z,1009.56
2019-02-03T02:28:29.706Z,1009.57
2019-02-03T02:29:29.685Z,1009.60
2019-02-03T02:30:29.555Z,1009.63
2019-02-03T02:31:29.496Z,1009.64
2019-02-03T02:32:29.342Z,1009.64
2019-02-03T02:33:29.300Z,1009.68
2019-02-03T02:34:29.175Z,1009.66
2019-02-03T02:35:29.108Z,1009.64
2019-02-03T02:36:29.116Z,1009.64
2019-02-03T02:37:28.906Z,1009.64
2019-02-03T02:38:28.819Z,1009.63
2019-02-03T02:39:28.930Z,1009.63
2019-02-03T02:40:28.663Z,1009.64
2019-02-03T02:41:28.743Z,1009.63
2019-02-03T02:42:28.471Z,1009.63
2019-02-03T02:43:28.548Z,1009.63
2019-02-03T02:44:28.290Z,1009.63
2019-02-03T02:45:28.398Z,1009.65
2019-02-03T02:46:28.118Z,1009.57
2019-02-03T02:47:28.164Z,1009.60
2019-02-03T02:48:27.970Z,1009.64
2019-02-03T02:49:27.974Z,1009.64
2019-02-03T02:50:27.811Z,1009.62
2019-02-03T02:51:27.674Z,1009.65
2019-02-03T02:52:27.793Z,1009.66
2019-02-03T02:53:27.499Z,1009.63
2019-02-03T02:54:27.472Z,1009.67
2019-02-03T02:55:27.447Z,1009.69
2019-02-03T02:56:27.238Z,1009.66
2019-02-03T02:57:27.142Z,1009.65
2019-02-03T02:58:27.217Z,1009.67
2019-02-03T02:59:26.968Z,1009.66
2019-02-03T03:00:26.907Z,1009.65
2019-02-03T03:01:26.869Z,1009.65
2019-02-03T03:02:26.704Z,1009.65
2019-02-03T03:03:26.626Z,1009.70
2019-02-03T03:04:26.645Z,1009.66
2019-02-03T03:05:26.445Z,1009.65
2019-02-03T03:06:26.380Z,1009.66
2019-02-03T03:07:26.453Z,1009.74
2019-02-03T03:08:26.180Z,1009.74
2019-02-03T03:09:26.266Z,1009.82
2019-02-03T03:10:26.000Z,1009.84
2019-02-03T03:11:26.115Z,1009.81
2019-02-03T03:12:25.828Z,1009.83
2019-02-03T03:13:25.882Z,1009.85
2019-02-03T03:14:25.659Z,1009.85
2019-02-03T03:15:25.574Z,1009.87
2019-02-03T03:16:25.503Z,1009.89
2019-02-03T03:17:25.497Z,1009.96
2019-02-03T03:18:25.299Z,1009.95
2019-02-03T03:19:25.306Z,1009.95
2019-02-03T03:20:25.124Z,1009.96
2019-02-03T03:21:25.067Z,1009.92
2019-02-03T03:22:24.956Z,1009.95
2019-02-03T03:23:24.925Z,1009.94
2019-02-03T03:24:24.776Z,1009.96
2019-02-03T03:25:24.730Z,1009.91
2019-02-03T03:26:24.621Z,1009.94
2019-02-03T03:27:24.543Z,1009.94
2019-02-03T03:28:24.425Z,1009.95
2019-02-03T03:29:24.565Z,1009.90
2019-02-03T03:30:24.256Z,1009.92
2019-02-03T03:31:24.187Z,1009.90
2019-02-03T03:32:24.164Z,1009.88
2019-02-03T03:33:23.984Z,1009.86
2019-02-03T03:34:23.903Z,1009.87
2019-02-03T03:35:23.978Z,1009.91
2019-02-03T03:36:23.743Z,1009.92
2019-02-03T03:37:23.632Z,1009.91
2019-02-03T03:38:31.815Z,1009.91
2019-02-03T03:39:23.461Z,1009.94
2019-02-03T03:40:23.373Z,1009.90
2019-02-03T03:41:23.443Z,1009.90
2019-02-03T03:42:23.206Z,1009.92
2019-02-03T03:43:23.110Z,1009.97
2019-02-03T03:44:23.222Z,1010.00
2019-02-03T03:45:22.932Z,1010.04
2019-02-03T03:46:22.873Z,1010.01
2019-02-03T03:47:22.827Z,1010.00
2019-02-03T03:48:22.671Z,1010.10
2019-02-03T03:49:22.579Z,1010.07
2019-02-03T03:50:22.498Z,1010.05
2019-02-03T03:51:22.434Z,1010.10
2019-02-03T03:52:22.343Z,1010.05
2019-02-03T03:53:22.254Z,1010.14
2019-02-03T03:54:22.144Z,1010.19
2019-02-03T03:55:22.055Z,1010.20
2019-02-03T03:56:22.116Z,1010.20
2019-02-03T03:57:21.888Z,1010.23
2019-02-03T03:58:21.797Z,1010.17
2019-02-03T03:59:21.881Z,1010.25
2019-02-03T04:00:21.615Z,1010.23
2019-02-03T04:01:21.550Z,1010.18
2019-02-03T04:02:21.496Z,1010.19
2019-02-03T04:03:21.351Z,1010.19
2019-02-03T04:04:21.431Z,1010.21
2019-02-03T04:05:21.178Z,1010.20
2019-02-03T04:06:21.123Z,1010.19
2019-02-03T04:07:21.115Z,1010.21
2019-02-03T04:08:20.958Z,1010.20
2019-02-03T04:09:20.834Z,1010.15
2019-02-03T04:10:20.933Z,1010.21
2019-02-03T04:11:20.680Z,1010.21
2019-02-03T04:12:20.563Z,1010.23
2019-02-03T04:13:20.548Z,1010.23
2019-02-03T04:14:20.388Z,1010.24
2019-02-03T04:15:20.307Z,1010.23
2019-02-03T04:16:20.409Z,1010.23
2019-02-03T04:17:20.130Z,1010.27
2019-02-03T04:18:20.043Z,1010.32
2019-02-03T04:19:19.974Z,1010.33
2019-02-03T04:20:19.871Z,1010.39
2019-02-03T04:21:19.814Z,1010.37
2019-02-03T04:22:19.788Z,1010.47
2019-02-03T04:23:19.598Z,1010.54
2019-02-03T04:24:19.593Z,1010.63
2019-02-03T04:25:19.430Z,1010.65
2019-02-03T04:26:19.359Z,1010.67
2019-02-03T04:27:19.407Z,1010.71
2019-02-03T04:28:19.289Z,1010.83
2019-02-03T04:29:19.077Z,1010.91
2019-02-03T04:30:19.015Z,1010.93
2019-02-03T04:31:18.924Z,1011.00
2019-02-03T04:32:18.811Z,1011.06
2019-02-03T04:33:18.835Z,1011.07
2019-02-03T04:34:18.632Z,1011.20
2019-02-03T04:35:18.555Z,1011.24
2019-02-03T04:36:18.718Z,1011.19
2019-02-03T04:37:18.370Z,1011.23
2019-02-03T04:38:18.285Z,1011.34
2019-02-03T04:39:18.258Z,1011.37
2019-02-03T04:40:18.110Z,1011.41
2019-02-03T04:41:18.050Z,1011.44
2019-02-03T04:42:18.244Z,1011.56
2019-02-03T04:43:17.846Z,1011.55
2019-02-03T04:44:17.759Z,1011.63
2019-02-03T04:45:17.889Z,1011.64
2019-02-03T04:46:17.584Z,1011.71
2019-02-03T04:47:17.527Z,1011.70
2019-02-03T04:48:17.497Z,1011.74
2019-02-03T04:49:17.386Z,1011.76
2019-02-03T04:50:17.236Z,1011.77
2019-02-03T04:51:17.313Z,1011.83
2019-02-03T04:52:17.091Z,1011.82
2019-02-03T04:53:17.119Z,1011.87
2019-02-03T04:54:16.883Z,1011.89
2019-02-03T04:55:16.934Z,1011.95
2019-02-03T04:56:16.708Z,1012.00
2019-02-03T04:57:16.648Z,1011.94
2019-02-03T04:58:16.761Z,1011.97
2019-02-03T04:59:16.451Z,1011.96
2019-02-03T05:00:16.368Z,1012.00
2019-02-03T05:01:16.357Z,1011.98
2019-02-03T05:02:16.215Z,1011.99
2019-02-03T05:03:16.162Z,1011.99
2019-02-03T05:04:16.007Z,1012.00
2019-02-03T05:05:15.990Z,1012.07
2019-02-03T05:06:15.833Z,1012.08
2019-02-03T05:07:15.771Z,1012.04
2019-02-03T05:08:15.788Z,1012.07
2019-02-03T05:09:15.575Z,1012.06
2019-02-03T05:10:15.481Z,1012.01
2019-02-03T05:11:15.608Z,1012.04
2019-02-03T05:12:15.341Z,1012.02
2019-02-03T05:13:15.409Z,1012.03
2019-02-03T05:14:15.137Z,1012.03
2019-02-03T05:15:15.245Z,1012.06
2019-02-03T05:16:14.974Z,1012.11
2019-02-03T05:17:14.909Z,1012.07
2019-02-03T05:18:14.832Z,1012.12
2019-02-03T05:19:14.692Z,1012.15
2019-02-03T05:20:14.604Z,1012.14
2019-02-03T05:21:14.649Z,1012.13
2019-02-03T05:22:14.461Z,1012.17
2019-02-03T05:23:14.342Z,1012.20
2019-02-03T05:24:14.464Z,1012.21
2019-02-03T05:25:14.169Z,1012.22
2019-02-03T05:26:14.269Z,1012.27
2019-02-03T05:27:14.026Z,1012.28
2019-02-03T05:28:14.075Z,1012.27
2019-02-03T05:29:13.818Z,1012.28
2019-02-03T05:30:13.887Z,1012.32
2019-02-03T05:31:13.644Z,1012.28
2019-02-03T05:32:13.585Z,1012.35
2019-02-03T05:33:13.500Z,1012.39
2019-02-03T05:34:13.390Z,1012.38
2019-02-03T05:35:13.312Z,1012.41
2019-02-03T05:36:13.215Z,1012.42
2019-02-03T05:37:13.147Z,1012.44
2019-02-03T05:38:13.042Z,1012.48
2019-02-03T05:39:24.344Z,1012.50
2019-02-03T05:40:12.869Z,1012.43
2019-02-03T05:41:12.777Z,1012.50
2019-02-03T05:42:12.779Z,1012.47
2019-02-03T05:43:12.592Z,1012.49
2019-02-03T05:44:12.507Z,1012.61
2019-02-03T05:45:12.561Z,1012.58
2019-02-03T05:46:12.354Z,1012.62
2019-02-03T05:47:12.251Z,1012.64
2019-02-03T05:48:12.202Z,1012.63
2019-02-03T05:49:12.212Z,1012.67
2019-02-03T05:50:12.175Z,1012.66
2019-02-03T05:51:11.896Z,1012.67
2019-02-03T05:52:11.979Z,1012.62
2019-02-03T05:53:11.743Z,1012.67
2019-02-03T05:54:11.803Z,1012.71
2019-02-03T05:55:11.543Z,1012.75
2019-02-03T05:56:11.597Z,1012.77
2019-02-03T05:57:11.374Z,1012.77
2019-02-03T05:58:11.308Z,1012.78
2019-02-03T05:59:11.208Z,1012.80
2019-02-03T06:00:11.110Z,1012.83
2019-02-03T06:01:11.014Z,1012.84
2019-02-03T06:02:11.065Z,1012.89
2019-02-03T06:03:10.866Z,1012.82
2019-02-03T06:04:10.757Z,1012.81
2019-02-03T06:05:10.839Z,1012.85
2019-02-03T06:06:10.579Z,1012.85
2019-02-03T06:07:10.499Z,1012.84
2019-02-03T06:08:10.494Z,1012.87
2019-02-03T06:09:10.317Z,1012.86
2019-02-03T06:10:10.257Z,1012.85
2019-02-03T06:11:10.146Z,1012.89
2019-02-03T06:12:10.273Z,1012.90
2019-02-03T06:13:09.989Z,1012.94
2019-02-03T06:14:10.076Z,1012.92
2019-02-03T06:15:09.798Z,1012.94
2019-02-03T06:16:09.886Z,1012.93
2019-02-03T06:17:09.620Z,1013.00
2019-02-03T06:18:09.560Z,1013.03
2019-02-03T06:19:09.499Z,1013.01
2019-02-03T06:20:09.351Z,1013.01
2019-02-03T06:21:09.263Z,1013.06
2019-02-03T06:22:09.370Z,1013.10
2019-02-03T06:23:09.113Z,1013.05
2019-02-03T06:24:09.127Z,1013.12
2019-02-03T06:25:08.924Z,1013.14
2019-02-03T06:26:08.931Z,1013.16
2019-02-03T06:27:08.736Z,1013.20
2019-02-03T06:28:08.791Z,1013.15
2019-02-03T06:29:08.566Z,1013.17
2019-02-03T06:30:08.546Z,1013.24
2019-02-03T06:31:08.387Z,1013.24
2019-02-03T06:32:08.395Z,1013.19
2019-02-03T06:33:08.243Z,1013.22
2019-02-03T06:34:08.168Z,1013.19
2019-02-03T06:35:08.036Z,1013.16
2019-02-03T06:36:07.973Z,1013.21
2019-02-03T06:37:07.861Z,1013.21
2019-02-03T06:38:07.822Z,1013.14
2019-02-03T06:39:07.686Z,1013.16
2019-02-03T06:40:07.800Z,1013.12
2019-02-03T06:41:07.516Z,1013.14
2019-02-03T06:42:07.604Z,1013.13
2019-02-03T06:43:07.361Z,1013.13
2019-02-03T06:44:07.249Z,1013.19
2019-02-03T06:45:07.214Z,1013.19
2019-02-03T06:46:07.071Z,1013.18
2019-02-03T06:47:06.992Z,1013.17
2019-02-03T06:48:07.078Z,1013.18
2019-02-03T06:49:06.811Z,1013.19
2019-02-03T06:50:06.719Z,1013.23
2019-02-03T06:51:06.842Z,1013.24
2019-02-03T06:52:06.545Z,1013.21
2019-02-03T06:53:06.484Z,1013.22
2019-02-03T06:54:06.457Z,1013.22
2019-02-03T06:55:06.284Z,1013.25
2019-02-03T06:56:06.266Z,1013.24
2019-02-03T06:57:06.105Z,1013.24
2019-02-03T06:58:06.111Z,1013.24
2019-02-03T06:59:05.953Z,1013.26
2019-02-03T07:00:05.848Z,1013.32
2019-02-03T07:01:05.884Z,1013.33
2019-02-03T07:02:05.678Z,1013.31
2019-02-03T07:03:05.575Z,1013.30
2019-02-03T07:04:05.539Z,1013.30
2019-02-03T07:05:05.398Z,1013.33
2019-02-03T07:06:05.510Z,1013.30
2019-02-03T07:07:05.231Z,1013.36
2019-02-03T07:08:05.319Z,1013.40
2019-02-03T07:09:05.081Z,1013.43
2019-02-03T07:10:05.127Z,1013.49
2019-02-03T07:11:04.872Z,1013.46
2019-02-03T07:12:04.943Z,1013.51
2019-02-03T07:13:04.695Z,1013.51
2019-02-03T07:14:04.637Z,1013.43
2019-02-03T07:15:04.547Z,1013.50
2019-02-03T07:16:04.430Z,1013.48
2019-02-03T07:17:04.342Z,1013.51
2019-02-03T07:18:04.360Z,1013.48
2019-02-03T07:19:04.188Z,1013.57
2019-02-03T07:20:04.079Z,1013.53
2019-02-03T07:21:04.177Z,1013.55
2019-02-03T07:22:03.899Z,1013.61
2019-02-03T07:23:03.812Z,1013.63
2019-02-03T07:24:03.826Z,1013.61
2019-02-03T07:25:03.645Z,1013.60
2019-02-03T07:26:03.554Z,1013.66
2019-02-03T07:27:03.597Z,1013.65
2019-02-03T07:28:03.370Z,1013.65
2019-02-03T07:29:03.317Z,1013.68
2019-02-03T07:30:03.211Z,1013.68
2019-02-03T07:31:03.111Z,1013.70
2019-02-03T07:32:03.224Z,1013.71
2019-02-03T07:33:02.926Z,1013.66
2019-02-03T07:34:03.083Z,1013.69
2019-02-03T07:35:02.750Z,1013.71
2019-02-03T07:36:02.844Z,1013.77
2019-02-03T07:37:02.576Z,1013.79
2019-02-03T07:38:02.661Z,1013.82
2019-02-03T07:39:02.428Z,1013.80
2019-02-03T07:40:12.221Z,1013.86
2019-02-03T07:41:02.261Z,1013.86
2019-02-03T07:42:02.132Z,1013.88
2019-02-03T07:43:02.044Z,1013.88
2019-02-03T07:44:02.131Z,1013.87
2019-02-03T07:45:01.876Z,1013.92
2019-02-03T07:46:01.797Z,1013.91
2019-02-03T07:47:01.889Z,1013.94
2019-02-03T07:48:01.612Z,1013.97
2019-02-03T07:49:01.546Z,1014.03
2019-02-03T07:50:01.502Z,1014.04
2019-02-03T07:51:01.354Z,1014.06
2019-02-03T07:52:01.252Z,1014.09
2019-02-03T07:53:01.331Z,1014.13
2019-02-03T07:54:08.044Z,1014.18
2019-02-03T07:55:00.987Z,1014.17
2019-02-03T07:56:00.900Z,1014.12
2019-02-03T07:57:00.934Z,1014.16
2019-02-03T07:58:00.721Z,1014.22
2019-02-03T07:59:00.666Z,1014.18
2019-02-03T08:00:00.547Z,1014.22
2019-02-03T08:01:00.547Z,1014.24
2019-02-03T08:02:00.369Z,1014.28
2019-02-03T08:03:00.377Z,1014.32
2019-02-03T08:04:00.519Z,1014.26
2019-02-03T08:05:00.198Z,1014.27
2019-02-03T08:06:00.171Z,1014.33
2019-02-03T08:06:59.937Z,1014.34
2019-02-03T08:07:59.987Z,1014.33
2019-02-03T08:08:59.787Z,1014.42
2019-02-03T08:09:59.791Z,1014.37
2019-02-03T08:10:59.576Z,1014.49
2019-02-03T08:11:59.601Z,1014.45
2019-02-03T08:12:59.409Z,1014.50
2019-02-03T08:13:59.337Z,1014.48
2019-02-03T08:14:59.410Z,1014.52
2019-02-03T08:15:59.139Z,1014.56
2019-02-03T08:16:59.053Z,1014.60
2019-02-03T08:17:59.021Z,1014.60
2019-02-03T08:18:58.906Z,1014.59
2019-02-03T08:19:58.792Z,1014.68
2019-02-03T08:20:58.838Z,1014.67
2019-02-03T08:21:58.626Z,1014.74
2019-02-03T08:22:58.534Z,1014.76
2019-02-03T08:23:58.505Z,1014.81
2019-02-03T08:24:58.350Z,1014.86
2019-02-03T08:25:58.265Z,1014.85
2019-02-03T08:26:58.350Z,1014.82
2019-02-03T08:27:58.101Z,1014.90
2019-02-03T08:28:58.052Z,1014.84
2019-02-03T08:29:58.078Z,1014.89
2019-02-03T08:30:57.829Z,1015.00
2019-02-03T08:31:57.958Z,1014.84
2019-02-03T08:32:57.651Z,1014.81
2019-02-03T08:33:57.691Z,1014.79
2019-02-03T08:34:57.503Z,1014.92
2019-02-03T08:35:57.504Z,1015.06
2019-02-03T08:36:57.312Z,1015.03
2019-02-03T08:37:57.311Z,1015.14
2019-02-03T08:38:57.133Z,1014.95
2019-02-03T08:39:57.164Z,1015.11
2019-02-03T08:40:56.978Z,1015.12
2019-02-03T08:41:56.928Z,1014.98
2019-02-03T08:42:56.785Z,1015.16
2019-02-03T08:43:56.753Z,1015.20
2019-02-03T08:44:56.636Z,1015.23
2019-02-03T08:45:56.551Z,1015.18
2019-02-03T08:46:56.446Z,1015.18
2019-02-03T08:47:56.558Z,1015.26
2019-02-03T08:48:56.273Z,1015.14
2019-02-03T08:49:56.209Z,1015.18
2019-02-03T08:50:56.101Z,1015.25
2019-02-03T08:51:56.173Z,1015.25
2019-02-03T08:52:55.912Z,1015.35
2019-02-03T08:53:55.831Z,1015.32
2019-02-03T08:54:58.246Z,1015.32
2019-02-03T08:55:55.663Z,1015.32
2019-02-03T08:56:55.573Z,1015.33
2019-02-03T08:57:57.726Z,1015.31
2019-02-03T08:58:55.403Z,1015.34
2019-02-03T08:59:55.346Z,1015.36
2019-02-03T09:00:55.428Z,1015.35
2019-02-03T09:01:55.141Z,1015.36
2019-02-03T09:02:55.051Z,1015.36
2019-02-03T09:03:55.034Z,1015.37
2019-02-03T09:04:54.929Z,1015.36
2019-02-03T09:05:54.790Z,1015.35
2019-02-03T09:06:57.521Z,1015.45
2019-02-03T09:07:54.619Z,1015.42
2019-02-03T09:08:54.650Z,1015.50
2019-02-03T09:09:54.446Z,1015.45
2019-02-03T09:10:54.391Z,1015.46
2019-02-03T09:11:54.467Z,1015.53
2019-02-03T09:12:54.198Z,1015.55
2019-02-03T09:13:55.669Z,1015.55
2019-02-03T09:14:54.063Z,1015.52
2019-02-03T09:15:53.958Z,1015.60
2019-02-03T09:16:53.884Z,1015.61
2019-02-03T09:17:53.768Z,1015.69
2019-02-03T09:18:53.674Z,1015.68
2019-02-03T09:19:53.699Z,1015.76
2019-02-03T09:20:55.982Z,1015.65
2019-02-03T09:21:53.426Z,1015.71
2019-02-03T09:22:53.375Z,1015.64
2019-02-03T09:23:53.371Z,1015.59
2019-02-03T09:24:53.175Z,1015.81
2019-02-03T09:25:58.567Z,1015.88
2019-02-03T09:26:52.992Z,1015.66
2019-02-03T09:27:52.912Z,1015.70
2019-02-03T09:28:52.905Z,1015.78
2019-02-03T09:29:52.739Z,1015.84
2019-02-03T09:30:52.684Z,1015.94
2019-02-03T09:31:53.645Z,1015.97
2019-02-03T09:32:52.486Z,1015.72
2019-02-03T09:33:52.400Z,1015.72
2019-02-03T09:34:52.369Z,1015.67
2019-02-03T09:35:52.425Z,1015.74
2019-02-03T09:36:52.146Z,1015.70
2019-02-03T09:37:52.256Z,1015.75
2019-02-03T09:38:51.981Z,1015.89
2019-02-03T09:39:51.890Z,1015.78
2019-02-03T09:40:59.744Z,1015.86
2019-02-03T09:41:51.718Z,1015.80
2019-02-03T09:42:51.639Z,1015.87
2019-02-03T09:43:51.679Z,1015.90
2019-02-03T09:44:51.463Z,1015.96
2019-02-03T09:45:51.376Z,1015.98
2019-02-03T09:46:51.342Z,1015.92
2019-02-03T09:47:51.207Z,1015.90
2019-02-03T09:48:51.303Z,1016.08
2019-02-03T09:49:51.038Z,1016.03
2019-02-03T09:50:50.953Z,1016.06
2019-02-03T09:51:53.015Z,1016.15
2019-02-03T09:52:50.792Z,1016.09
2019-02-03T09:53:50.696Z,1016.15
2019-02-03T09:54:50.736Z,1016.18
2019-02-03T09:55:50.536Z,1016.23
2019-02-03T09:56:50.583Z,1016.25
2019-02-03T09:57:50.364Z,1016.21
2019-02-03T09:58:50.474Z,1016.27
2019-02-03T09:59:50.193Z,1016.38
2019-02-03T10:00:50.108Z,1016.43
2019-02-03T10:01:50.129Z,1016.46
2019-02-03T10:02:49.943Z,1016.50
2019-02-03T10:03:49.856Z,1016.62
2019-02-03T10:04:49.902Z,1016.59
2019-02-03T10:05:49.690Z,1016.59
2019-02-03T10:06:49.710Z,1016.64
2019-02-03T10:07:49.719Z,1016.58
2019-02-03T10:08:49.437Z,1016.62
2019-02-03T10:09:49.526Z,1016.68
2019-02-03T10:10:49.267Z,1016.61
2019-02-03T10:11:49.208Z,1016.63
2019-02-03T10:12:49.133Z,1016.68
2019-02-03T10:13:49.018Z,1016.70
2019-02-03T10:14:48.935Z,1016.68
2019-02-03T10:15:48.953Z,1016.71
2019-02-03T10:16:48.805Z,1016.77
2019-02-03T10:17:48.763Z,1016.82
2019-02-03T10:18:48.599Z,1016.80
2019-02-03T10:19:48.567Z,1016.79
2019-02-03T10:20:48.441Z,1016.86
2019-02-03T10:21:48.383Z,1016.83
2019-02-03T10:22:48.384Z,1016.76
2019-02-03T10:23:48.185Z,1016.89
2019-02-03T10:24:48.099Z,1016.80
2019-02-03T10:25:48.195Z,1016.86
2019-02-03T10:26:47.956Z,1016.84
2019-02-03T10:27:48.002Z,1016.87
2019-02-03T10:28:47.774Z,1016.86
2019-02-03T10:29:47.820Z,1016.91
2019-02-03T10:30:47.602Z,1016.54
2019-02-03T10:31:47.543Z,1016.58
2019-02-03T10:32:47.628Z,1016.86
2019-02-03T10:33:47.353Z,1016.88
2019-02-03T10:34:47.266Z,1016.88
2019-02-03T10:35:47.244Z,1016.88
2019-02-03T10:36:47.243Z,1017.00
2019-02-03T10:37:47.044Z,1017.07
2019-02-03T10:38:46.935Z,1017.00
2019-02-03T10:39:47.062Z,1017.00
2019-02-03T10:40:46.768Z,1016.90
2019-02-03T10:41:46.690Z,1016.92
2019-02-03T10:42:46.711Z,1016.97
2019-02-03T10:43:46.518Z,1016.94
2019-02-03T10:44:46.440Z,1016.76
2019-02-03T10:45:46.484Z,1016.77
2019-02-03T10:46:46.272Z,1017.03
2019-02-03T10:47:46.226Z,1017.04
2019-02-03T10:48:46.299Z,1017.06
2019-02-03T10:49:46.768Z,1016.96
2019-02-03T10:50:45.948Z,1016.96
2019-02-03T10:51:45.913Z,1017.04
2019-02-03T10:52:45.803Z,1017.18
2019-02-03T10:53:45.697Z,1016.89
2019-02-03T10:54:45.734Z,1017.13
2019-02-03T10:55:45.530Z,1017.19
2019-02-03T10:56:45.445Z,1017.14
2019-02-03T10:57:45.486Z,1017.09
2019-02-03T10:58:45.276Z,1016.89
2019-02-03T10:59:45.255Z,1016.96
2019-02-03T11:00:45.109Z,1017.34
2019-02-03T11:01:45.046Z,1017.32
2019-02-03T11:02:44.995Z,1017.15
2019-02-03T11:03:44.857Z,1017.19
2019-02-03T11:04:44.778Z,1017.25
2019-02-03T11:05:44.822Z,1017.35
2019-02-03T11:06:44.611Z,1017.29
2019-02-03T11:07:44.555Z,1017.36
2019-02-03T11:08:44.486Z,1017.29
2019-02-03T11:09:44.363Z,1017.31
2019-02-03T11:10:44.451Z,1017.42
2019-02-03T11:11:44.303Z,1017.63
2019-02-03T11:12:44.141Z,1017.50
2019-02-03T11:13:46.188Z,1017.29
2019-02-03T11:14:43.947Z,1017.34
2019-02-03T11:15:44.023Z,1017.38
2019-02-03T11:16:43.785Z,1017.33
2019-02-03T11:17:43.719Z,1017.45
2019-02-03T11:18:43.630Z,1017.34
2019-02-03T11:19:43.528Z,1017.36
2019-02-03T11:20:43.447Z,1017.42
2019-02-03T11:21:43.448Z,1017.52
2019-02-03T11:22:43.313Z,1017.45
2019-02-03T11:23:43.195Z,1017.41
2019-02-03T11:24:44.313Z,1017.43
2019-02-03T11:25:43.026Z,1017.44
2019-02-03T11:26:42.948Z,1017.45
2019-02-03T11:27:42.918Z,1017.61
2019-02-03T11:28:42.776Z,1017.65
2019-02-03T11:29:42.892Z,1017.58
2019-02-03T11:30:42.609Z,1017.47
2019-02-03T11:31:42.531Z,1017.45
2019-02-03T11:32:42.501Z,1017.54
2019-02-03T11:33:42.398Z,1017.70
2019-02-03T11:34:42.285Z,1017.67
2019-02-03T11:35:42.312Z,1017.79
2019-02-03T11:36:46.963Z,1017.70
2019-02-03T11:37:42.024Z,1017.63
2019-02-03T11:38:42.179Z,1017.69
2019-02-03T11:39:41.864Z,1017.62
2019-02-03T11:40:41.916Z,1017.87
2019-02-03T11:41:49.411Z,1017.80
2019-02-03T11:42:41.604Z,1017.68
2019-02-03T11:43:43.388Z,1017.66
2019-02-03T11:44:41.550Z,1017.75
2019-02-03T11:45:41.353Z,1017.89
2019-02-03T11:46:41.269Z,1017.98
2019-02-03T11:47:41.363Z,1018.06
2019-02-03T11:48:41.131Z,1017.91
2019-02-03T11:49:41.019Z,1017.84
2019-02-03T11:50:41.023Z,1017.85
2019-02-03T11:51:40.851Z,1017.84
2019-02-03T11:52:40.772Z,1017.87
2019-02-03T11:53:40.846Z,1017.77
2019-02-03T11:54:40.612Z,1017.79
2019-02-03T11:55:40.522Z,1017.78
2019-02-03T11:56:40.613Z,1017.81
2019-02-03T11:57:40.347Z,1017.72
2019-02-03T11:58:40.400Z,1017.78
2019-02-03T11:59:40.221Z,1017.92
2019-02-03T12:00:40.102Z,1017.94
2019-02-03T12:01:40.019Z,1018.21
2019-02-03T12:02:41.959Z,1018.03
2019-02-03T12:03:39.878Z,1017.99
2019-02-03T12:04:39.768Z,1018.02